Time;durP1;ratioP1;P1;durP2;ratioP2;P2;SDS_P1;SDS_P2;PMS_P1;PMS_P2;Temp;Humidity;BMP_temperature;BMP_pressure;BME280_temperature;BME280_humidity;BME280_pressure;Samples;Min_cycle;Max_cycle;Signal;HPM_P1;HPM_P2
2023/03/23 00:01:36;;;;;;;5.90;2.78;;;12.50;97.40;;;;;;5073719;28;20036;-72
2023/03/23 00:04:03;;;;;;;4.53;2.33;;;12.60;97.40;;;;;;5074713;28;20183;-71
2023/03/23 00:06:32;;;;;;;5.10;2.53;;;12.60;97.30;;;;;;5074649;28;20021;-71
2023/03/23 00:09:01;;;;;;;8.27;2.40;;;12.60;97.30;;;;;;5074609;28;20021;-71
2023/03/23 00:11:29;;;;;;;3.30;2.60;;;12.60;97.20;;;;;;5074585;28;20035;-72
2023/03/23 00:14:00;;;;;;;5.18;2.60;;;12.60;97.10;;;;;;5074517;28;20053;-71
2023/03/23 00:16:33;;;;;;;5.82;2.47;;;12.60;97.10;;;;;;5074524;28;20021;-72
2023/03/23 00:19:07;;;;;;;5.45;2.40;;;12.60;97.10;;;;;;5074518;28;20036;-71
2023/03/23 00:21:36;;;;;;;4.47;2.40;;;12.60;97.10;;;;;;5074519;28;20032;-72
2023/03/23 00:24:09;;;;;;;3.40;1.98;;;12.60;97.20;;;;;;5074349;28;20025;-71
2023/03/23 00:26:39;;;;;;;4.03;2.40;;;12.60;97.00;;;;;;5073147;28;20032;-71
2023/03/23 00:29:16;;;;;;;4.47;2.25;;;12.60;97.10;;;;;;5074282;28;20029;-71
2023/03/23 00:31:46;;;;;;;4.70;2.38;;;12.60;96.90;;;;;;5074037;28;20105;-71
2023/03/23 00:34:18;;;;;;;5.10;2.03;;;12.70;97.00;;;;;;5074129;28;20033;-72
2023/03/23 00:36:49;;;;;;;2.75;1.38;;;12.70;97.00;;;;;;5057147;28;20025;-71
2023/03/23 00:39:18;;;;;;;6.28;2.70;;;12.70;96.80;;;;;;5074153;28;20048;-71
2023/03/23 00:41:45;;;;;;;3.85;2.40;;;12.70;96.90;;;;;;5073964;28;20031;-71
2023/03/23 00:44:16;;;;;;;3.95;2.35;;;12.70;97.10;;;;;;5073054;28;20013;-71
2023/03/23 00:46:48;;;;;;;3.90;2.25;;;12.70;96.70;;;;;;5073948;28;20017;-70
2023/03/23 00:49:19;;;;;;;4.50;2.42;;;12.70;96.60;;;;;;5073930;28;20021;-71
2023/03/23 00:51:44;;;;;;;4.93;2.70;;;12.70;96.50;;;;;;5073858;28;20456;-71
2023/03/23 00:54:11;;;;;;;5.10;2.80;;;12.70;96.60;;;;;;5073748;28;20041;-71
2023/03/23 00:56:39;;;;;;;5.13;2.58;;;12.70;96.70;;;;;;5072924;28;20029;-71
2023/03/23 00:59:05;;;;;;;4.45;2.70;;;12.70;96.60;;;;;;5072565;28;20119;-71
2023/03/23 01:01:31;;;;;;;5.05;2.70;;;12.80;96.50;;;;;;5073635;28;20020;-71
2023/03/23 01:04:00;;;;;;;4.75;2.85;;;12.80;96.40;;;;;;5073558;28;20022;-71
2023/03/23 01:06:31;;;;;;;4.93;2.35;;;12.80;96.30;;;;;;5073660;28;20016;-71
2023/03/23 01:08:58;;;;;;;4.97;2.72;;;12.80;96.50;;;;;;5073501;28;20037;-71
2023/03/23 01:11:24;;;;;;;4.97;2.20;;;12.80;96.30;;;;;;5073475;28;20064;-71
2023/03/23 01:13:51;;;;;;;3.92;2.35;;;12.80;96.40;;;;;;5073461;28;20025;-72
2023/03/23 01:16:16;;;;;;;5.72;2.67;;;12.90;96.40;;;;;;5073408;28;20053;-71
2023/03/23 01:18:42;;;;;;;5.53;2.53;;;12.90;96.30;;;;;;5073249;28;20044;-71
2023/03/23 01:21:11;;;;;;;5.82;2.70;;;12.90;96.50;;;;;;5072344;28;20017;-72
2023/03/23 01:23:37;;;;;;;3.97;2.70;;;12.90;96.40;;;;;;5073264;28;20017;-71
2023/03/23 01:26:09;;;;;;;5.72;2.83;;;12.90;96.70;;;;;;5072280;28;20064;-71
2023/03/23 01:28:35;;;;;;;5.68;2.67;;;12.90;96.90;;;;;;5072416;28;20029;-71
2023/03/23 01:31:11;;;;;;;5.75;2.70;;;12.90;97.00;;;;;;5073097;28;20080;-71
2023/03/23 01:33:38;;;;;;;5.95;2.95;;;12.80;97.10;;;;;;5073263;28;20032;-71
2023/03/23 01:36:07;;;;;;;5.20;2.80;;;12.80;97.00;;;;;;5073175;28;20049;-72
2023/03/23 01:38:34;;;;;;;6.00;2.92;;;12.80;97.00;;;;;;5073067;28;20074;-71
2023/03/23 01:41:01;;;;;;;5.97;2.70;;;12.70;97.30;;;;;;5073280;28;20025;-71
2023/03/23 01:43:27;;;;;;;5.47;2.92;;;12.70;97.20;;;;;;5073221;28;20021;-71
2023/03/23 01:45:52;;;;;;;4.07;2.60;;;12.80;97.10;;;;;;5073042;28;20025;-71
2023/03/23 01:48:32;;;;;;;4.68;2.58;;;12.70;97.20;;;;;;5073015;28;20029;-72
2023/03/23 01:51:12;;;;;;;4.07;2.58;;;12.70;97.30;;;;;;5073054;28;20474;-71
2023/03/23 01:53:48;;;;;;;3.90;2.83;;;12.70;97.10;;;;;;5073062;28;20036;-71
2023/03/23 01:56:20;;;;;;;6.40;2.85;;;12.80;97.10;;;;;;5073045;28;20084;-71
2023/03/23 01:58:46;;;;;;;3.97;2.28;;;12.80;97.10;;;;;;5072943;28;20032;-71
2023/03/23 02:01:14;;;;;;;3.92;2.50;;;12.80;97.00;;;;;;5072926;28;20021;-71
2023/03/23 02:03:44;;;;;;;3.75;2.47;;;12.80;96.90;;;;;;5072901;28;20017;-72
2023/03/23 02:06:11;;;;;;;4.82;3.17;;;12.80;96.90;;;;;;5072977;28;20024;-72
2023/03/23 02:08:38;;;;;;;6.80;2.33;;;12.80;96.90;;;;;;5076385;28;20029;-71
2023/03/23 02:11:19;;;;;;;5.55;2.55;;;12.80;96.80;;;;;;5076835;28;20044;-71
2023/03/23 02:13:45;;;;;;;5.78;2.13;;;12.80;96.90;;;;;;5076847;28;20027;-71
2023/03/23 02:16:54;;;;;;;4.80;2.47;;;12.80;96.80;;;;;;5076798;28;20025;-71
2023/03/23 02:19:47;;;;;;;5.97;2.83;;;12.80;96.80;;;;;;5055493;28;20036;-71
2023/03/23 02:22:38;;;;;;;5.28;2.53;;;12.80;96.90;;;;;;5076786;28;20059;-71
2023/03/23 02:25:13;;;;;;;3.53;2.47;;;12.80;96.80;;;;;;5075592;28;20037;-71
2023/03/23 02:28:04;;;;;;;7.50;2.63;;;12.80;96.80;;;;;;5076531;28;20025;-71
2023/03/23 02:31:05;;;;;;;5.65;2.80;;;12.80;96.60;;;;;;5076340;28;20067;-71
2023/03/23 02:33:42;;;;;;;2.45;2.20;;;12.80;96.70;;;;;;5032122;28;20060;-71
2023/03/23 02:36:32;;;;;;;3.95;2.17;;;12.80;96.50;;;;;;5076597;28;20021;-71
2023/03/23 02:39:08;;;;;;;5.20;1.83;;;12.90;96.30;;;;;;5076473;28;20028;-71
2023/03/23 02:41:42;;;;;;;4.57;2.42;;;12.90;96.20;;;;;;5076350;28;20033;-71
2023/03/23 02:44:09;;;;;;;4.53;2.78;;;12.90;95.90;;;;;;5076306;28;20032;-71
2023/03/23 02:46:36;;;;;;;4.57;2.60;;;12.90;96.20;;;;;;5058958;28;20489;-71
2023/03/23 02:49:05;;;;;;;4.40;2.42;;;12.90;96.00;;;;;;5076173;28;20032;-70
2023/03/23 02:51:33;;;;;;;3.22;2.38;;;12.90;95.90;;;;;;5075209;28;20021;-72
2023/03/23 02:53:59;;;;;;;4.82;2.40;;;12.90;95.50;;;;;;5076064;28;20025;-71
2023/03/23 02:56:27;;;;;;;4.38;2.50;;;13.00;95.50;;;;;;5075992;28;20022;-71
2023/03/23 02:58:54;;;;;;;4.22;2.35;;;13.00;95.60;;;;;;5075928;28;20029;-71
2023/03/23 03:01:26;;;;;;;4.43;2.63;;;13.00;95.60;;;;;;5075032;28;20032;-71
2023/03/23 03:03:53;;;;;;;4.07;2.35;;;13.00;95.50;;;;;;5074932;28;20029;-71
2023/03/23 03:06:42;;;;;;;4.00;2.30;;;13.00;95.30;;;;;;5075991;28;20092;-71
2023/03/23 03:09:20;;;;;;;3.58;1.92;;;13.00;95.20;;;;;;5075270;28;20045;-72
2023/03/23 03:11:56;;;;;;;3.78;2.30;;;13.00;95.60;;;;;;5075888;28;20025;-71
2023/03/23 03:14:31;;;;;;;4.10;2.55;;;13.00;95.50;;;;;;5075749;28;20025;-72
2023/03/23 03:17:25;;;;;;;3.63;2.50;;;13.10;95.30;;;;;;5075681;28;20048;-71
2023/03/23 03:19:57;;;;;;;4.38;2.60;;;13.10;95.90;;;;;;5074674;28;20056;-72
2023/03/23 03:22:28;;;;;;;3.23;2.27;;;13.10;95.50;;;;;;5075592;28;20029;-71
2023/03/23 03:24:57;;;;;;;3.55;2.35;;;13.00;95.70;;;;;;5075510;28;20260;-71
2023/03/23 03:27:24;;;;;;;6.10;3.05;;;13.00;95.60;;;;;;5075405;28;20025;-71
2023/03/23 03:29:58;;;;;;;4.93;2.67;;;13.00;95.60;;;;;;5075180;28;20048;-71
2023/03/23 03:32:41;;;;;;;4.38;2.60;;;13.10;95.60;;;;;;5075396;28;20033;-71
2023/03/23 03:35:07;;;;;;;6.22;2.60;;;13.00;95.80;;;;;;5075376;28;20017;-71
2023/03/23 03:37:39;;;;;;;5.18;2.65;;;13.00;95.70;;;;;;5075178;28;20174;-72
2023/03/23 03:40:11;;;;;;;;;;;13.00;95.80;;;;;;5075653;28;20020;-71
2023/03/23 03:42:41;;;;;;;3.45;2.22;;;13.10;95.70;;;;;;5075224;28;20389;-71
2023/03/23 03:45:09;;;;;;;3.92;2.40;;;13.10;95.80;;;;;;5074258;28;20032;-72
2023/03/23 03:47:35;;;;;;;4.78;2.28;;;13.00;95.80;;;;;;5075080;28;20106;-71
2023/03/23 03:50:01;;;;;;;6.10;2.53;;;13.10;95.60;;;;;;5075047;28;20017;-71
2023/03/23 03:52:27;;;;;;;6.78;2.80;;;13.10;95.70;;;;;;5073980;28;20045;-72
2023/03/23 03:54:53;;;;;;;4.82;2.10;;;13.10;95.70;;;;;;5074930;28;20649;-72
2023/03/23 03:57:19;;;;;;;3.35;2.40;;;13.10;95.50;;;;;;5074867;28;20029;-72
2023/03/23 03:59:45;;;;;;;4.57;2.70;;;13.10;95.40;;;;;;5074915;28;20052;-71
2023/03/23 04:02:14;;;;;;;5.32;2.88;;;13.10;95.30;;;;;;5074808;28;20157;-71
2023/03/23 04:04:41;;;;;;;6.00;3.20;;;13.10;95.30;;;;;;5073778;28;20048;-71
2023/03/23 04:07:10;;;;;;;4.40;2.90;;;13.20;95.10;;;;;;5074686;28;20024;-71
2023/03/23 04:09:36;;;;;;;4.68;2.63;;;13.20;95.00;;;;;;5074624;28;20393;-71
2023/03/23 04:12:02;;;;;;;6.93;2.67;;;13.20;94.90;;;;;;5073642;28;20092;-72
2023/03/23 04:14:28;;;;;;;3.83;2.42;;;13.20;94.90;;;;;;5073620;28;20032;-71
2023/03/23 04:16:56;;;;;;;4.65;2.95;;;13.20;94.80;;;;;;5074610;28;20040;-72
2023/03/23 04:19:23;;;;;;;3.95;2.50;;;13.20;94.70;;;;;;5074367;28;20043;-72
2023/03/23 04:21:49;;;;;;;6.22;3.22;;;13.20;94.50;;;;;;5074395;28;20021;-72
2023/03/23 04:24:15;;;;;;;4.15;2.45;;;13.20;94.50;;;;;;5074369;28;20033;-72
2023/03/23 04:26:41;;;;;;;7.97;2.95;;;13.30;94.20;;;;;;5073176;28;20031;-71
2023/03/23 04:29:08;;;;;;;5.15;2.47;;;13.30;94.10;;;;;;5074260;28;20021;-71
2023/03/23 04:31:34;;;;;;;4.50;2.50;;;13.30;93.70;;;;;;5073927;28;20049;-72
2023/03/23 04:34:01;;;;;;;2.78;1.60;;;13.30;93.70;;;;;;5074185;28;20060;-71
2023/03/23 04:36:28;;;;;;;4.85;2.35;;;13.30;93.40;;;;;;5074106;28;20027;-72
2023/03/23 04:38:55;;;;;;;6.38;2.40;;;13.30;93.40;;;;;;5072966;28;20043;-72
2023/03/23 04:41:22;;;;;;;4.13;1.98;;;13.30;93.30;;;;;;5074028;28;20041;-72
2023/03/23 04:43:52;;;;;;;4.57;1.80;;;13.30;93.10;;;;;;5074122;28;20028;-72
2023/03/23 04:46:19;;;;;;;6.57;1.90;;;13.30;92.90;;;;;;5073918;28;20013;-71
2023/03/23 04:48:45;;;;;;;5.43;1.60;;;13.20;92.70;;;;;;5073856;28;20029;-72
2023/03/23 04:51:12;;;;;;;7.10;1.95;;;13.30;92.60;;;;;;5073854;28;20063;-72
2023/03/23 04:53:38;;;;;;;3.47;1.75;;;13.30;92.60;;;;;;5073785;28;20072;-72
2023/03/23 04:56:04;;;;;;;6.20;1.60;;;13.30;92.50;;;;;;5072801;28;20020;-71
2023/03/23 04:58:33;;;;;;;3.92;1.58;;;13.30;92.40;;;;;;5073798;28;20040;-71
2023/03/23 05:01:02;;;;;;;7.20;1.60;;;13.30;92.10;;;;;;5073678;28;20043;-72
2023/03/23 05:03:27;;;;;;;5.82;1.60;;;13.30;92.10;;;;;;5073631;28;20092;-72
2023/03/23 05:05:53;;;;;;;6.45;1.67;;;13.30;91.90;;;;;;5073588;28;20036;-73
2023/03/23 05:08:20;;;;;;;3.35;1.52;;;13.30;91.70;;;;;;5072454;28;20036;-74
2023/03/23 05:10:57;;;;;;;3.63;1.20;;;13.30;91.90;;;;;;5073543;28;20028;-73
2023/03/23 05:13:23;;;;;;;10.52;1.70;;;13.30;91.50;;;;;;5073515;28;20033;-73
2023/03/23 05:15:49;;;;;;;4.90;1.45;;;13.30;91.50;;;;;;5073428;28;20033;-72
2023/03/23 05:18:15;;;;;;;4.43;1.52;;;13.30;91.40;;;;;;5073316;28;20033;-72
2023/03/23 05:20:42;;;;;;;5.28;1.33;;;13.30;91.40;;;;;;5073529;28;20025;-72
2023/03/23 05:23:09;;;;;;;4.43;1.30;;;13.30;91.30;;;;;;5072298;28;20029;-72
2023/03/23 05:25:39;;;;;;;5.65;1.30;;;13.30;91.40;;;;;;5073292;28;20021;-73
2023/03/23 05:28:10;;;;;;;5.53;1.13;;;13.30;91.40;;;;;;5073240;28;20025;-72
2023/03/23 05:30:38;;;;;;;3.40;1.20;;;13.30;91.40;;;;;;5073033;28;20045;-72
2023/03/23 05:33:04;;;;;;;4.35;1.65;;;13.30;91.40;;;;;;5055825;28;20041;-71
2023/03/23 05:35:30;;;;;;;5.07;1.15;;;13.30;91.40;;;;;;5073219;28;20033;-71
2023/03/23 05:37:58;;;;;;;2.03;0.88;;;13.30;91.60;;;;;;5073058;28;20033;-72
2023/03/23 05:40:25;;;;;;;2.78;1.38;;;13.30;91.30;;;;;;5073280;28;20029;-72
2023/03/23 05:42:52;;;;;;;3.55;1.13;;;13.30;91.30;;;;;;5072588;28;20035;-71
2023/03/23 05:45:18;;;;;;;2.88;1.35;;;13.30;91.20;;;;;;5073117;28;20025;-71
2023/03/23 05:47:44;;;;;;;3.20;1.33;;;13.30;91.40;;;;;;5073044;28;20044;-72
2023/03/23 05:50:12;;;;;;;4.60;1.08;;;13.20;91.20;;;;;;5073049;28;20022;-71
2023/03/23 05:52:38;;;;;;;3.28;1.40;;;13.20;91.50;;;;;;5073059;28;20017;-72
2023/03/23 05:55:04;;;;;;;7.20;1.58;;;13.30;91.40;;;;;;5073097;28;20021;-72
2023/03/23 05:57:31;;;;;;;4.57;1.38;;;13.20;91.50;;;;;;5071944;28;20504;-72
2023/03/23 05:59:57;;;;;;;4.22;1.63;;;13.20;91.70;;;;;;5071934;28;20022;-72
2023/03/23 06:02:24;;;;;;;3.42;1.27;;;13.20;91.50;;;;;;5072928;28;20505;-73
2023/03/23 06:04:57;;;;;;;5.90;1.58;;;13.20;91.70;;;;;;5072922;28;20022;-71
2023/03/23 06:07:24;;;;;;;2.95;1.00;;;13.20;92.10;;;;;;5072963;28;20343;-71
2023/03/23 06:09:50;;;;;;;3.88;1.65;;;13.10;92.20;;;;;;5055551;28;20029;-72
2023/03/23 06:12:19;;;;;;;2.75;1.45;;;13.10;92.40;;;;;;5072837;28;20025;-73
2023/03/23 06:14:48;;;;;;;4.57;1.90;;;13.20;92.50;;;;;;5071722;28;20052;-72
2023/03/23 06:17:17;;;;;;;3.17;1.60;;;13.10;92.50;;;;;;5071736;28;20140;-72
2023/03/23 06:19:43;;;;;;;5.10;2.05;;;13.10;92.80;;;;;;5071873;28;20030;-72
2023/03/23 06:22:10;;;;;;;4.03;1.95;;;13.10;93.50;;;;;;5072708;28;20047;-72
2023/03/23 06:24:36;;;;;;;6.07;2.13;;;13.00;93.60;;;;;;5071759;28;20037;-71
2023/03/23 06:27:01;;;;;;;7.05;2.33;;;13.10;93.50;;;;;;5072617;28;20025;-72
2023/03/23 06:29:28;;;;;;;3.47;1.52;;;13.10;93.60;;;;;;5071711;28;20033;-71
2023/03/23 06:31:59;;;;;;;4.68;1.73;;;13.00;93.70;;;;;;5072520;28;20049;-71
2023/03/23 06:34:25;;;;;;;5.97;1.80;;;13.00;93.70;;;;;;5072697;28;20017;-71
2023/03/23 06:36:50;;;;;;;5.65;2.00;;;13.00;93.60;;;;;;5071711;28;20111;-72
2023/03/23 06:39:16;;;;;;;5.70;1.83;;;13.00;93.70;;;;;;5071672;28;20104;-72
2023/03/23 06:41:42;;;;;;;3.50;1.30;;;13.10;93.70;;;;;;5072546;28;20037;-71
2023/03/23 06:44:08;;;;;;;5.70;2.05;;;13.10;93.60;;;;;;5071576;28;20033;-71
2023/03/23 06:46:34;;;;;;;3.65;1.50;;;13.10;93.80;;;;;;5072482;28;20054;-71
2023/03/23 06:49:00;;;;;;;5.10;1.88;;;13.00;93.60;;;;;;5072514;28;20041;-71
2023/03/23 06:51:26;;;;;;;2.70;1.27;;;13.00;93.60;;;;;;5072451;28;20033;-71
2023/03/23 06:53:51;;;;;;;4.90;1.77;;;13.00;93.70;;;;;;5072974;28;20036;-71
2023/03/23 06:56:17;;;;;;;6.47;2.10;;;13.00;93.80;;;;;;5076031;28;20033;-71
2023/03/23 06:58:43;;;;;;;4.35;1.63;;;13.00;93.70;;;;;;5076006;28;20059;-72
2023/03/23 07:01:09;;;;;;;5.70;1.52;;;13.00;93.50;;;;;;5075091;28;20021;-72
2023/03/23 07:03:36;;;;;;;7.35;1.92;;;13.00;93.40;;;;;;5076061;28;20025;-71
2023/03/23 07:06:03;;;;;;;5.38;1.73;;;13.10;93.50;;;;;;5075866;28;20021;-72
2023/03/23 07:08:28;;;;;;;3.40;1.30;;;13.10;93.50;;;;;;5075926;28;20059;-71
2023/03/23 07:10:55;;;;;;;4.47;1.95;;;13.10;93.60;;;;;;5058234;28;20033;-71
2023/03/23 07:13:22;;;;;;;4.75;1.60;;;13.10;93.40;;;;;;5075754;28;20482;-72
2023/03/23 07:15:48;;;;;;;4.32;1.35;;;13.00;93.90;;;;;;5074671;28;20020;-72
2023/03/23 07:18:14;;;;;;;4.60;1.48;;;13.10;93.80;;;;;;5075605;28;20048;-72
2023/03/23 07:20:40;;;;;;;4.50;1.50;;;13.00;93.80;;;;;;5074555;28;20051;-71
2023/03/23 07:23:06;;;;;;;7.43;1.67;;;13.00;94.40;;;;;;5075599;28;20025;-72
2023/03/23 07:25:33;;;;;;;4.57;1.45;;;13.00;94.60;;;;;;5075525;28;20025;-72
2023/03/23 07:28:00;;;;;;;5.40;1.98;;;13.00;94.60;;;;;;5074339;28;20063;-72
2023/03/23 07:30:26;;;;;;;3.95;1.65;;;13.00;94.70;;;;;;5074216;28;20045;-72
2023/03/23 07:32:52;;;;;;;5.93;1.45;;;13.00;94.80;;;;;;5074471;28;20053;-72
2023/03/23 07:35:18;;;;;;;3.90;1.42;;;12.90;94.90;;;;;;5075297;28;20112;-71
2023/03/23 07:37:45;;;;;;;5.82;1.55;;;12.80;94.90;;;;;;5075283;28;20025;-73
2023/03/23 07:40:14;;;;;;;5.63;1.33;;;12.80;95.30;;;;;;5074182;28;20047;-71
2023/03/23 07:42:45;;;;;;;3.25;1.45;;;12.70;95.60;;;;;;5075221;28;20020;-71
2023/03/23 07:45:12;;;;;;;3.70;1.63;;;12.60;96.00;;;;;;5075178;28;20045;-71
2023/03/23 07:47:39;;;;;;;6.30;1.73;;;12.60;96.50;;;;;;5075109;28;20045;-71
2023/03/23 07:50:06;;;;;;;3.72;1.30;;;12.50;97.00;;;;;;5075027;28;20021;-71
2023/03/23 07:52:32;;;;;;;5.53;1.60;;;12.40;97.20;;;;;;5074993;28;20021;-71
2023/03/23 07:54:58;;;;;;;5.13;1.50;;;12.40;97.60;;;;;;5074965;28;20021;-72
2023/03/23 07:57:24;;;;;;;7.53;1.23;;;12.40;97.40;;;;;;5074904;28;20060;-71
2023/03/23 07:59:50;;;;;;;2.08;0.95;;;12.40;97.30;;;;;;5074756;28;20029;-73
2023/03/23 08:02:16;;;;;;;3.40;0.93;;;12.30;96.60;;;;;;5074789;28;20084;-71
2023/03/23 08:04:42;;;;;;;3.60;0.90;;;12.30;96.10;;;;;;5074296;28;20025;-72
2023/03/23 08:07:08;;;;;;;1.95;0.45;;;12.30;95.70;;;;;;5074737;28;20021;-72
2023/03/23 08:09:34;;;;;;;1.02;0.60;;;12.20;94.50;;;;;;5074650;28;20037;-72
2023/03/23 08:11:59;;;;;;;2.83;0.75;;;12.10;93.80;;;;;;5073728;28;20033;-72
2023/03/23 08:14:27;;;;;;;1.67;0.40;;;12.10;93.70;;;;;;5074487;28;20033;-72
2023/03/23 08:16:55;;;;;;;1.45;0.40;;;12.00;93.60;;;;;;5057242;28;20056;-73
2023/03/23 08:19:20;;;;;;;2.50;0.55;;;12.00;93.80;;;;;;5073453;28;20116;-72
2023/03/23 08:21:46;;;;;;;2.25;0.40;;;12.00;93.60;;;;;;5073594;28;20029;-73
2023/03/23 08:24:13;;;;;;;2.42;0.50;;;12.00;92.70;;;;;;5073638;28;20040;-72
2023/03/23 08:26:39;;;;;;;1.42;0.28;;;11.90;92.70;;;;;;5074398;28;20013;-71
2023/03/23 08:29:05;;;;;;;1.20;0.40;;;11.90;93.20;;;;;;5073284;28;20029;-71
2023/03/23 08:31:34;;;;;;;0.90;0.30;;;11.80;93.40;;;;;;5074077;28;20045;-72
2023/03/23 08:34:01;;;;;;;2.25;0.50;;;11.80;93.80;;;;;;5074196;28;20111;-72
2023/03/23 08:36:28;;;;;;;1.50;0.68;;;11.80;94.20;;;;;;5074163;28;20032;-72
2023/03/23 08:38:53;;;;;;;1.30;0.73;;;11.90;94.50;;;;;;5072946;28;20033;-72
2023/03/23 08:41:19;;;;;;;1.50;0.50;;;11.80;94.60;;;;;;5074025;28;20080;-71
2023/03/23 08:43:46;;;;;;;2.10;0.52;;;11.90;95.00;;;;;;5074035;28;20089;-72
2023/03/23 08:46:12;;;;;;;2.35;0.80;;;11.90;95.10;;;;;;5073971;28;20081;-72
2023/03/23 08:48:38;;;;;;;1.55;0.80;;;12.00;95.30;;;;;;5073886;28;20405;-73
2023/03/23 08:51:06;;;;;;;2.58;0.50;;;12.00;95.40;;;;;;5073818;28;20041;-72
2023/03/23 08:53:32;;;;;;;2.63;0.70;;;11.90;95.30;;;;;;5073845;28;20021;-73
2023/03/23 08:56:09;;;;;;;1.90;0.68;;;12.00;95.60;;;;;;5073807;28;20029;-72
2023/03/23 08:58:36;;;;;;;1.63;0.63;;;12.00;95.40;;;;;;5073731;28;20025;-73
2023/03/23 09:01:04;;;;;;;2.70;0.60;;;12.10;95.60;;;;;;5073707;28;20017;-71
2023/03/23 09:03:30;;;;;;;2.78;0.65;;;12.00;95.20;;;;;;5073718;28;20021;-72
2023/03/23 09:06:05;;;;;;;4.35;0.98;;;12.00;94.60;;;;;;5073628;28;20043;-72
2023/03/23 09:08:31;;;;;;;2.00;0.60;;;12.10;94.50;;;;;;5073609;28;20021;-72
2023/03/23 09:11:04;;;;;;;1.02;0.50;;;12.10;94.20;;;;;;5073560;28;20035;-71
2023/03/23 09:13:30;;;;;;;1.75;0.50;;;12.10;94.10;;;;;;5073542;28;20448;-72
2023/03/23 09:15:57;;;;;;;2.67;0.70;;;12.10;94.20;;;;;;5072256;28;20036;-72
2023/03/23 09:18:23;;;;;;;2.83;0.50;;;12.10;93.70;;;;;;5072870;28;20023;-72
2023/03/23 09:20:54;;;;;;;2.75;0.47;;;12.10;93.50;;;;;;5055762;28;20041;-71
2023/03/23 09:23:20;;;;;;;4.07;0.57;;;12.10;93.70;;;;;;5073411;28;20075;-72
2023/03/23 09:25:47;;;;;;;1.73;0.57;;;12.20;94.00;;;;;;5073310;28;20037;-72
2023/03/23 09:28:14;;;;;;;2.55;0.40;;;12.20;93.10;;;;;;5073250;28;20047;-72
2023/03/23 09:30:40;;;;;;;3.35;0.60;;;12.30;92.80;;;;;;5073067;28;20056;-72
2023/03/23 09:33:07;;;;;;;0.65;0.47;;;12.30;92.80;;;;;;5073260;28;20021;-72
2023/03/23 09:35:35;;;;;;;3.28;0.73;;;12.50;92.80;;;;;;5073217;28;20029;-73
2023/03/23 09:38:02;;;;;;;4.45;0.52;;;12.60;93.00;;;;;;5073136;28;20052;-72
2023/03/23 09:40:41;;;;;;;0.40;0.38;;;12.70;92.20;;;;;;5073177;28;20073;-72
2023/03/23 09:43:20;;;;;;;2.25;0.70;;;12.80;92.50;;;;;;5073316;28;20422;-72
2023/03/23 09:45:51;;;;;;;2.95;0.70;;;12.90;92.60;;;;;;5073110;28;20071;-71
2023/03/23 09:48:46;;;;;;;2.92;0.70;;;12.90;92.40;;;;;;5072058;28;20032;-72
2023/03/23 09:51:18;;;;;;;3.65;0.80;;;13.00;92.50;;;;;;5073100;28;20029;-72
2023/03/23 09:53:49;;;;;;;0.65;0.50;;;12.90;91.90;;;;;;5073052;28;20123;-72
2023/03/23 09:56:17;;;;;;;3.25;0.85;;;12.80;91.10;;;;;;5073066;28;20072;-72
2023/03/23 09:58:50;;;;;;;1.92;0.50;;;12.80;91.70;;;;;;5072940;28;20033;-72
2023/03/23 10:01:26;;;;;;;3.10;0.55;;;12.90;91.80;;;;;;5073159;28;20021;-73
2023/03/23 10:04:00;;;;;;;0.73;0.40;;;13.00;92.20;;;;;;5072979;28;20025;-72
2023/03/23 10:06:26;;;;;;;0.90;0.40;;;13.00;91.20;;;;;;5072976;28;20029;-72
2023/03/23 10:08:55;;;;;;;1.90;0.57;;;13.20;91.80;;;;;;5072925;28;20033;-72
2023/03/23 10:11:44;;;;;;;1.42;0.70;;;13.30;92.30;;;;;;5073146;28;20021;-72
2023/03/23 10:14:23;;;;;;;4.65;1.02;;;13.50;91.70;;;;;;5071893;28;20040;-71
2023/03/23 10:17:19;;;;;;;1.38;0.60;;;13.60;91.10;;;;;;5072858;28;20036;-71
2023/03/23 10:20:09;;;;;;;2.72;0.55;;;13.50;91.30;;;;;;5072772;28;20040;-72
2023/03/23 10:22:44;;;;;;;0.90;0.57;;;13.50;91.80;;;;;;5072838;28;20029;-71
2023/03/23 10:25:15;;;;;;;1.88;0.60;;;13.70;92.20;;;;;;5072690;28;20017;-72
2023/03/23 10:27:47;;;;;;;6.70;0.98;;;13.80;91.70;;;;;;5073095;28;20139;-72
2023/03/23 10:30:23;;;;;;;3.08;0.77;;;13.80;91.70;;;;;;5075513;28;20067;-72
2023/03/23 10:33:16;;;;;;;2.65;1.05;;;13.90;91.20;;;;;;5076594;28;20021;-71
2023/03/23 10:36:00;;;;;;;6.65;1.30;;;13.90;91.30;;;;;;5076506;28;20080;-72
2023/03/23 10:38:31;;;;;;;2.92;1.33;;;14.00;90.60;;;;;;5076417;28;20047;-72
2023/03/23 10:41:05;;;;;;;3.03;0.93;;;14.10;90.50;;;;;;5075405;28;20535;-72
2023/03/23 10:43:31;;;;;;;4.20;1.42;;;14.20;90.40;;;;;;5076400;28;20013;-73
2023/03/23 10:46:02;;;;;;;3.20;0.90;;;14.40;90.50;;;;;;5076436;28;20021;-73
2023/03/23 10:48:33;;;;;;;3.50;1.08;;;14.40;90.20;;;;;;5076276;28;20029;-72
2023/03/23 10:51:02;;;;;;;1.70;0.80;;;14.40;90.20;;;;;;5076207;28;20040;-73
2023/03/23 10:53:47;;;;;;;3.90;0.70;;;14.50;90.10;;;;;;5076167;28;20025;-71
2023/03/23 10:56:36;;;;;;;4.88;0.80;;;14.50;90.00;;;;;;5076144;28;20469;-72
2023/03/23 10:59:19;;;;;;;3.28;1.10;;;14.50;89.60;;;;;;5076168;28;20029;-72
2023/03/23 11:01:51;;;;;;;3.78;1.33;;;14.50;89.40;;;;;;5076037;28;20025;-72
2023/03/23 11:04:19;;;;;;;3.30;1.27;;;14.50;88.40;;;;;;5076138;28;20013;-72
2023/03/23 11:07:00;;;;;;;3.70;1.40;;;14.40;88.60;;;;;;5075908;28;20021;-72
2023/03/23 11:09:50;;;;;;;1.97;0.90;;;14.40;88.80;;;;;;5075945;28;20025;-72
2023/03/23 11:12:18;;;;;;;2.88;1.33;;;14.50;89.00;;;;;;5075930;28;20032;-72
2023/03/23 11:14:44;;;;;;;3.50;1.42;;;14.60;87.80;;;;;;5075568;28;20033;-72
2023/03/23 11:17:26;;;;;;;3.20;1.25;;;14.60;89.70;;;;;;5075490;28;20033;-72
2023/03/23 11:19:54;;;;;;;5.20;1.13;;;14.60;89.80;;;;;;5075432;28;20036;-72
2023/03/23 11:22:27;;;;;;;3.72;1.20;;;14.60;89.80;;;;;;5074493;28;20020;-73
2023/03/23 11:24:59;;;;;;;4.53;1.20;;;14.70;87.90;;;;;;5075533;28;20017;-72
2023/03/23 11:27:27;;;;;;;4.28;1.40;;;14.90;89.80;;;;;;5075280;28;20025;-73
2023/03/23 11:30:08;;;;;;;5.07;1.25;;;15.00;88.30;;;;;;5075152;28;20027;-73
2023/03/23 11:32:35;;;;;;;3.45;1.42;;;15.20;86.10;;;;;;5074267;28;20029;-72
2023/03/23 11:35:05;;;;;;;2.17;0.88;;;15.20;87.80;;;;;;5075140;28;20022;-72
2023/03/23 11:37:43;;;;;;;2.47;1.20;;;15.20;85.50;;;;;;5075153;28;20032;-72
2023/03/23 11:40:12;;;;;;;3.60;1.40;;;15.20;85.10;;;;;;5074249;28;20025;-72
2023/03/23 11:42:42;;;;;;;3.13;1.15;;;15.20;86.70;;;;;;5075160;28;20076;-73
2023/03/23 11:45:17;;;;;;;4.53;1.10;;;15.40;84.60;;;;;;5075445;28;20028;-72
2023/03/23 11:48:10;;;;;;;2.97;1.13;;;15.30;84.10;;;;;;5075283;28;20028;-73
2023/03/23 11:51:05;;;;;;;3.55;0.85;;;15.20;83.30;;;;;;5064434;28;20033;-72
2023/03/23 11:54:06;;;;;;;3.10;1.35;;;15.20;84.60;;;;;;5075083;28;20017;-72
2023/03/23 11:56:37;;;;;;;2.97;1.13;;;15.00;85.50;;;;;;5075150;28;20086;-72
2023/03/23 11:59:10;;;;;;;2.42;0.95;;;15.00;85.00;;;;;;5074864;28;20021;-73
2023/03/23 12:01:47;;;;;;;2.20;1.05;;;14.90;83.20;;;;;;5074893;28;20021;-72
2023/03/23 12:04:33;;;;;;;4.47;1.05;;;14.90;85.60;;;;;;5074853;28;20013;-73
2023/03/23 12:07:30;;;;;;;5.28;1.20;;;14.80;85.60;;;;;;5074806;28;20080;-72
2023/03/23 12:10:24;;;;;;;5.38;1.08;;;14.80;85.80;;;;;;5073831;28;20029;-72
2023/03/23 12:13:13;;;;;;;5.78;1.42;;;14.80;86.40;;;;;;5074718;28;20021;-72
2023/03/23 12:15:42;;;;;;;4.38;0.85;;;14.80;87.60;;;;;;5073574;28;20120;-72
2023/03/23 12:18:44;;;;;;;2.20;1.00;;;14.80;86.70;;;;;;5074441;28;20029;-74
2023/03/23 12:21:35;;;;;;;2.78;1.00;;;15.00;86.80;;;;;;5074452;28;20126;-72
2023/03/23 12:24:13;;;;;;;3.13;1.10;;;15.20;87.40;;;;;;5074464;28;20021;-72
2023/03/23 12:27:04;;;;;;;5.28;1.20;;;15.40;84.80;;;;;;5074345;28;20045;-71
2023/03/23 12:29:45;;;;;;;2.97;0.70;;;15.40;85.20;;;;;;5074336;28;20025;-71
2023/03/23 12:32:48;;;;;;;5.50;1.30;;;15.30;82.40;;;;;;5074161;28;20104;-72
2023/03/23 12:35:24;;;;;;;4.47;1.13;;;15.30;81.70;;;;;;5074246;28;20029;-71
2023/03/23 12:38:02;;;;;;;2.95;1.00;;;15.20;82.60;;;;;;5074087;28;20056;-72
2023/03/23 12:40:49;;;;;;;6.47;1.13;;;15.20;83.20;;;;;;5074239;28;20025;-71
2023/03/23 12:43:39;;;;;;;7.75;1.33;;;15.20;83.70;;;;;;5074213;28;20021;-73
2023/03/23 12:46:05;;;;;;;3.08;1.45;;;15.40;82.60;;;;;;5074050;28;20036;-72
2023/03/23 12:48:39;;;;;;;4.00;1.50;;;15.40;82.10;;;;;;5072913;28;20029;-72
2023/03/23 12:51:15;;;;;;;2.85;1.38;;;15.50;82.50;;;;;;5073934;28;20029;-71
2023/03/23 12:53:53;;;;;;;3.10;1.23;;;15.60;84.30;;;;;;5073901;28;20051;-72
2023/03/23 12:56:33;;;;;;;2.55;1.02;;;15.80;84.50;;;;;;5073931;28;20473;-71
2023/03/23 12:59:06;;;;;;;3.17;1.30;;;15.70;80.80;;;;;;5073712;28;20543;-73
2023/03/23 13:01:43;;;;;;;5.28;1.15;;;15.70;81.10;;;;;;5073888;28;20051;-72
2023/03/23 13:04:27;;;;;;;4.88;1.30;;;15.90;82.90;;;;;;5073862;28;20013;-72
2023/03/23 13:06:53;;;;;;;6.28;1.30;;;15.90;79.80;;;;;;5073691;28;20025;-73
2023/03/23 13:09:38;;;;;;;4.70;1.15;;;15.90;79.20;;;;;;5073721;28;20036;-73